Time;durP1;ratioP1;P1;durP2;ratioP2;P2;SDS_P1;SDS_P2;PMS_P1;PMS_P2;Temp;Humidity;BMP_temperature;BMP_pressure;BME280_temperature;BME280_humidity;BME280_pressure;Samples;Min_cycle;Max_cycle;Signal;HPM_P1;HPM_P2
2021/05/08 00:02:10;;;;;;;11.10;7.33;;;4.40;99.90;;;;;;4424471;32;20609;-60
2021/05/08 00:04:38;;;;;;;10.43;7.30;;;4.30;99.90;;;;;;4421313;32;20196;-60
2021/05/08 00:07:05;;;;;;;10.63;8.30;;;4.30;99.90;;;;;;4422222;32;20175;-61
2021/05/08 00:09:31;;;;;;;12.03;8.47;;;4.30;99.90;;;;;;4429608;32;20147;-61
2021/05/08 00:11:58;;;;;;;10.07;8.00;;;4.30;99.90;;;;;;4429342;32;20176;-60
2021/05/08 00:14:26;;;;;;;12.90;8.20;;;4.30;99.90;;;;;;4420818;32;20575;-61
2021/05/08 00:16:53;;;;;;;10.43;7.73;;;4.30;99.90;;;;;;4433115;32;20179;-64
2021/05/08 00:19:19;;;;;;;15.73;9.07;;;4.20;99.90;;;;;;4431389;32;20175;-62
2021/05/08 00:21:46;;;;;;;12.77;8.33;;;4.20;99.90;;;;;;4435195;32;20163;-63
2021/05/08 00:24:15;;;;;;;10.70;7.70;;;4.20;99.90;;;;;;4434433;32;20195;-62
2021/05/08 00:26:41;;;;;;;11.37;8.73;;;4.20;99.90;;;;;;4428790;32;20151;-60
2021/05/08 00:29:07;;;;;;;10.37;8.03;;;4.20;99.90;;;;;;4425162;32;20583;-61
2021/05/08 00:31:35;;;;;;;11.07;8.23;;;4.10;99.90;;;;;;4432736;32;20155;-62
2021/05/08 00:34:06;;;;;;;9.03;7.67;;;4.10;99.90;;;;;;4428963;32;20543;-60
2021/05/08 00:36:33;;;;;;;11.90;8.03;;;4.10;99.90;;;;;;4427513;32;20202;-61
2021/05/08 00:38:59;;;;;;;13.43;9.00;;;4.10;99.90;;;;;;4432244;32;20179;-63
2021/05/08 00:41:25;;;;;;;9.43;7.83;;;4.10;99.90;;;;;;4424619;32;20171;-63
2021/05/08 00:43:55;;;;;;;11.77;9.07;;;4.00;99.90;;;;;;4436532;32;20519;-61
2021/05/08 00:46:22;;;;;;;10.73;7.83;;;4.00;99.90;;;;;;4429882;32;20217;-61
2021/05/08 00:48:50;;;;;;;12.40;8.70;;;3.90;99.90;;;;;;4425651;32;20153;-60
2021/05/08 00:54:05;;;;;;;13.97;9.03;;;3.90;99.90;;;;;;4411096;32;20589;-62
2021/05/08 00:56:31;;;;;;;12.47;8.90;;;3.90;99.90;;;;;;4417359;32;20167;-64
2021/05/08 00:59:03;;;;;;;11.77;8.53;;;3.90;99.90;;;;;;4414876;32;20248;-60
2021/05/08 01:01:30;;;;;;;12.70;8.53;;;3.90;99.90;;;;;;4421310;32;20598;-65
2021/05/08 01:03:57;;;;;;;15.07;10.07;;;3.90;99.90;;;;;;4417948;32;20211;-62
2021/05/08 01:06:33;;;;;;;13.50;9.97;;;3.90;99.90;;;;;;4417258;32;20208;-59
2021/05/08 01:09:04;;;;;;;15.50;9.60;;;3.90;99.90;;;;;;4415387;32;20159;-62
2021/05/08 01:11:31;;;;;;;13.30;9.60;;;3.90;99.90;;;;;;4410678;32;20286;-61
2021/05/08 01:13:58;;;;;;;14.13;8.87;;;3.80;99.90;;;;;;4415408;32;20177;-64
2021/05/08 01:16:24;;;;;;;16.43;10.53;;;3.90;99.90;;;;;;4426429;32;20170;-62
2021/05/08 01:18:55;;;;;;;13.80;10.07;;;3.80;99.90;;;;;;4421645;32;20175;-62
2021/05/08 01:21:22;;;;;;;13.37;9.23;;;3.80;99.90;;;;;;4421846;32;20153;-63
2021/05/08 01:23:49;;;;;;;14.80;10.53;;;3.80;99.90;;;;;;4433228;32;20197;-60
2021/05/08 01:26:16;;;;;;;14.97;9.87;;;3.80;99.90;;;;;;4439125;32;20183;-62
2021/05/08 01:28:44;;;;;;;14.80;10.57;;;3.70;99.90;;;;;;4434219;32;20228;-63
2021/05/08 01:31:11;;;;;;;14.33;10.37;;;3.80;99.90;;;;;;4433899;32;20151;-63
2021/05/08 01:33:38;;;;;;;15.47;10.07;;;3.70;99.90;;;;;;4435800;32;20155;-64
2021/05/08 01:36:04;;;;;;;14.37;10.53;;;3.70;99.90;;;;;;4434133;32;20212;-62
2021/05/08 01:38:32;;;;;;;14.17;11.00;;;3.70;99.90;;;;;;4430961;32;20155;-63
2021/05/08 01:41:02;;;;;;;12.90;10.57;;;3.70;99.90;;;;;;4438421;32;20155;-63
2021/05/08 01:43:29;;;;;;;17.23;11.80;;;3.70;99.90;;;;;;4430525;32;20151;-62
2021/05/08 01:45:56;;;;;;;14.50;11.67;;;3.70;99.90;;;;;;4424541;32;20254;-64
2021/05/08 01:48:23;;;;;;;16.80;12.10;;;3.70;99.90;;;;;;4425850;32;20635;-62
2021/05/08 01:50:49;;;;;;;19.47;12.43;;;3.80;99.90;;;;;;4424070;32;20152;-64
2021/05/08 01:53:16;;;;;;;14.40;11.80;;;3.80;99.90;;;;;;4430116;32;20208;-64
2021/05/08 01:55:44;;;;;;;17.37;11.97;;;3.80;99.90;;;;;;4437501;32;20199;-63
2021/05/08 01:58:11;;;;;;;15.57;11.37;;;3.90;99.90;;;;;;4431606;32;20224;-59
2021/05/08 02:00:41;;;;;;;17.13;12.33;;;3.90;99.90;;;;;;4431808;32;20459;-61
2021/05/08 02:03:08;;;;;;;16.10;11.10;;;4.00;99.90;;;;;;4423460;32;20183;-61
2021/05/08 02:05:36;;;;;;;15.17;11.90;;;3.90;99.90;;;;;;4423527;32;20212;-62
2021/05/08 02:08:04;;;;;;;16.90;12.27;;;3.90;99.90;;;;;;4424141;32;20566;-64
2021/05/08 02:10:31;;;;;;;15.17;12.27;;;3.90;99.90;;;;;;4431514;32;20143;-60
2021/05/08 02:13:03;;;;;;;17.23;12.43;;;3.90;99.90;;;;;;4438746;32;20197;-63
2021/05/08 02:15:29;;;;;;;18.40;12.33;;;3.90;99.90;;;;;;4433930;32;20170;-61
2021/05/08 02:17:55;;;;;;;16.27;11.90;;;3.90;99.90;;;;;;4424805;32;20587;-61
2021/05/08 02:20:26;;;;;;;17.27;12.47;;;4.00;99.90;;;;;;4429596;32;20163;-63
2021/05/08 02:22:54;;;;;;;22.77;13.40;;;4.00;99.90;;;;;;4435006;32;20249;-63
2021/05/08 02:25:21;;;;;;;20.83;14.47;;;4.00;99.90;;;;;;4424045;32;20619;-60
2021/05/08 02:27:49;;;;;;;22.03;14.27;;;4.10;99.90;;;;;;4426057;32;20169;-61
2021/05/08 02:30:19;;;;;;;22.27;14.13;;;4.20;99.90;;;;;;4428226;32;20242;-66
2021/05/08 02:32:54;;;;;;;22.20;15.77;;;4.30;99.90;;;;;;4423413;32;20155;-62
2021/05/08 02:35:21;;;;;;;18.23;14.60;;;4.40;99.90;;;;;;4426380;32;20150;-64
2021/05/08 02:37:48;;;;;;;19.60;14.90;;;4.40;99.90;;;;;;4437432;32;20155;-63
2021/05/08 02:40:17;;;;;;;20.93;15.67;;;4.40;99.90;;;;;;4437905;32;20151;-64
2021/05/08 02:42:45;;;;;;;23.77;16.50;;;4.50;99.90;;;;;;4436184;32;20158;-62
2021/05/08 02:45:12;;;;;;;20.63;15.60;;;4.60;99.90;;;;;;4430723;32;20187;-62
2021/05/08 02:47:40;;;;;;;21.27;17.00;;;4.50;99.90;;;;;;4437679;32;20519;-64
2021/05/08 02:50:08;;;;;;;21.50;16.90;;;4.60;99.90;;;;;;4437811;32;20190;-64
2021/05/08 02:52:35;;;;;;;23.47;17.17;;;4.70;99.90;;;;;;4427672;32;20170;-61
2021/05/08 02:55:01;;;;;;;23.60;16.77;;;4.70;99.90;;;;;;4422753;32;20159;-64
2021/05/08 02:57:28;;;;;;;26.40;17.43;;;4.80;99.90;;;;;;4426327;32;20606;-61
2021/05/08 02:59:54;;;;;;;24.13;17.23;;;4.90;99.90;;;;;;4434861;32;20147;-63
2021/05/08 03:02:21;;;;;;;28.83;17.40;;;5.00;99.90;;;;;;4433749;32;20158;-62
2021/05/08 03:04:48;;;;;;;23.57;17.03;;;5.00;99.90;;;;;;4435289;32;20416;-63
2021/05/08 03:07:14;;;;;;;22.67;17.17;;;5.00;99.90;;;;;;4421939;32;20162;-62
2021/05/08 03:09:41;;;;;;;20.27;16.40;;;5.00;99.90;;;;;;4423833;32;20162;-62
2021/05/08 03:12:08;;;;;;;26.23;17.73;;;4.90;99.90;;;;;;4429098;32;20504;-62
2021/05/08 03:14:35;;;;;;;25.03;17.60;;;4.90;99.90;;;;;;4433841;32;20182;-65
2021/05/08 03:17:01;;;;;;;26.23;18.27;;;4.90;99.90;;;;;;4436792;32;20518;-59
2021/05/08 03:19:27;;;;;;;24.50;18.87;;;4.90;99.90;;;;;;4424829;32;20597;-62
2021/05/08 03:21:55;;;;;;;27.37;18.90;;;5.00;99.90;;;;;;4424109;32;20608;-61
2021/05/08 03:24:21;;;;;;;24.77;18.33;;;5.10;99.90;;;;;;4431900;32;20147;-62
2021/05/08 03:26:48;;;;;;;24.33;17.63;;;5.10;99.90;;;;;;4428904;32;20583;-60
2021/05/08 03:29:14;;;;;;;23.40;17.93;;;5.10;99.90;;;;;;4429386;32;20187;-63
2021/05/08 03:31:41;;;;;;;26.33;18.60;;;5.10;99.90;;;;;;4425957;32;20154;-59
2021/05/08 03:34:07;;;;;;;25.27;17.33;;;5.00;99.90;;;;;;4424622;32;20171;-64
2021/05/08 03:36:36;;;;;;;23.50;17.03;;;5.00;99.90;;;;;;4425187;32;20587;-64
2021/05/08 03:39:04;;;;;;;23.40;17.27;;;5.00;99.90;;;;;;4421182;32;20166;-64
2021/05/08 03:41:31;;;;;;;21.93;17.87;;;4.90;99.90;;;;;;4424238;32;20263;-65
2021/05/08 03:43:58;;;;;;;26.83;17.17;;;4.90;99.90;;;;;;4422441;32;20509;-60
2021/05/08 03:46:24;;;;;;;24.83;17.93;;;4.90;99.90;;;;;;4428826;32;20147;-60
2021/05/08 03:48:51;;;;;;;23.40;17.10;;;4.90;99.90;;;;;;4436974;32;20501;-63
2021/05/08 03:51:17;;;;;;;25.07;18.27;;;4.90;99.90;;;;;;4422071;32;20289;-62
2021/05/08 03:53:44;;;;;;;22.57;15.83;;;5.00;99.90;;;;;;4425014;32;20159;-60
2021/05/08 03:56:19;;;;;;;24.20;17.43;;;5.10;99.90;;;;;;4436845;32;20585;-62
2021/05/08 03:58:45;;;;;;;23.53;16.80;;;5.20;99.90;;;;;;4427443;32;20658;-63
2021/05/08 04:01:13;;;;;;;21.07;17.00;;;5.10;99.90;;;;;;4429671;32;20159;-62
2021/05/08 04:03:39;;;;;;;25.10;16.20;;;5.10;99.90;;;;;;4427210;32;20162;-64
2021/05/08 04:06:08;;;;;;;24.50;16.87;;;5.20;99.90;;;;;;4420935;32;20143;-65
2021/05/08 04:08:35;;;;;;;26.10;16.40;;;5.20;99.90;;;;;;4430847;32;20231;-60
2021/05/08 04:11:01;;;;;;;23.13;15.73;;;5.20;99.90;;;;;;4420871;32;20441;-63
2021/05/08 04:13:28;;;;;;;23.40;16.47;;;5.20;99.90;;;;;;4424628;32;20159;-62
2021/05/08 04:15:55;;;;;;;18.10;15.20;;;5.30;99.90;;;;;;4435290;32;20171;-63
2021/05/08 04:18:21;;;;;;;19.73;15.03;;;5.40;99.90;;;;;;4423021;32;20175;-62
2021/05/08 04:20:47;;;;;;;17.97;14.03;;;5.40;99.90;;;;;;4420673;32;20579;-62
2021/05/08 04:23:14;;;;;;;17.83;13.80;;;5.60;99.90;;;;;;4429165;32;20427;-60
2021/05/08 04:25:44;;;;;;;17.23;13.87;;;5.80;99.90;;;;;;4435040;32;20151;-61
2021/05/08 04:28:11;;;;;;;16.87;13.87;;;6.00;99.90;;;;;;4423432;32;20151;-62
2021/05/08 04:30:39;;;;;;;19.13;13.13;;;6.00;99.80;;;;;;4422296;32;20155;-61
2021/05/08 04:33:08;;;;;;;19.33;12.53;;;6.00;99.60;;;;;;4428004;32;20155;-62
2021/05/08 04:35:36;;;;;;;19.40;12.77;;;6.10;99.60;;;;;;4426996;32;20175;-62
2021/05/08 04:38:04;;;;;;;21.53;13.43;;;6.30;99.10;;;;;;4426520;32;20202;-61
2021/05/08 04:40:31;;;;;;;17.60;13.37;;;6.40;98.90;;;;;;4434832;32;20177;-61
2021/05/08 04:42:57;;;;;;;17.57;12.83;;;6.40;98.70;;;;;;4434829;32;20218;-60
2021/05/08 04:45:25;;;;;;;17.07;12.90;;;6.50;98.60;;;;;;4421487;32;20166;-63
2021/05/08 04:47:54;;;;;;;17.33;12.00;;;6.60;97.80;;;;;;4422607;32;20171;-60
2021/05/08 04:50:21;;;;;;;17.70;12.27;;;6.70;97.60;;;;;;4438160;32;20154;-63
2021/05/08 04:52:47;;;;;;;16.17;13.10;;;6.80;97.80;;;;;;4439030;32;20500;-63
2021/05/08 04:55:14;;;;;;;17.80;12.47;;;7.00;97.00;;;;;;4424690;32;20637;-62
2021/05/08 04:57:40;;;;;;;14.60;11.73;;;7.00;96.90;;;;;;4427023;32;20166;-61
2021/05/08 05:00:07;;;;;;;16.40;12.20;;;6.90;96.70;;;;;;4429371;32;20162;-60
2021/05/08 05:02:33;;;;;;;14.53;11.00;;;6.90;96.80;;;;;;4435631;32;20602;-63
2021/05/08 05:05:01;;;;;;;13.27;10.83;;;7.00;96.90;;;;;;4432735;32;20210;-63
2021/05/08 05:07:27;;;;;;;14.73;10.97;;;7.20;96.10;;;;;;4419167;32;20761;-64
2021/05/08 05:09:53;;;;;;;16.63;10.97;;;7.50;95.80;;;;;;4422827;32;20210;-61
2021/05/08 05:12:20;;;;;;;16.00;11.30;;;7.90;94.90;;;;;;4427987;32;20201;-60
2021/05/08 05:14:48;;;;;;;14.60;11.43;;;7.90;94.80;;;;;;4431687;32;20178;-62
2021/05/08 05:17:14;;;;;;;14.67;10.53;;;8.00;94.80;;;;;;4420924;32;20625;-63
2021/05/08 05:19:40;;;;;;;15.43;10.60;;;8.70;94.60;;;;;;4431557;32;20225;-61
2021/05/08 05:22:07;;;;;;;13.03;10.97;;;10.20;92.50;;;;;;4433834;32;20614;-63
2021/05/08 05:24:34;;;;;;;14.70;10.53;;;10.60;89.50;;;;;;4434789;32;20216;-62
2021/05/08 05:27:00;;;;;;;12.60;10.00;;;10.10;88.50;;;;;;4430700;32;20156;-62
2021/05/08 05:29:26;;;;;;;12.00;10.20;;;10.30;90.80;;;;;;4435009;32;20187;-63
2021/05/08 05:31:53;;;;;;;11.60;8.23;;;12.60;89.00;;;;;;4420700;32;20223;-63
2021/05/08 05:34:21;;;;;;;11.70;9.23;;;13.90;77.30;;;;;;4432979;32;20482;-63
2021/05/08 05:36:47;;;;;;;11.60;8.43;;;13.00;74.50;;;;;;4432227;32;20170;-62
2021/05/08 05:39:15;;;;;;;13.63;9.20;;;11.80;78.60;;;;;;4433313;32;20156;-62
2021/05/08 05:41:42;;;;;;;12.40;8.90;;;11.10;81.10;;;;;;4431548;32;20174;-61
2021/05/08 05:44:08;;;;;;;10.23;8.33;;;10.70;83.40;;;;;;4433421;32;20479;-63
2021/05/08 05:46:35;;;;;;;13.63;9.43;;;10.10;83.90;;;;;;4423520;32;20271;-63
2021/05/08 05:49:01;;;;;;;11.70;8.77;;;9.70;85.40;;;;;;4430338;32;20155;-61
2021/05/08 05:51:28;;;;;;;12.80;8.80;;;9.60;87.20;;;;;;4426723;32;20159;-61
2021/05/08 05:53:56;;;;;;;13.07;9.53;;;9.50;87.80;;;;;;4423686;32;20539;-61
2021/05/08 05:56:25;;;;;;;12.83;8.87;;;9.60;87.20;;;;;;4426355;32;20186;-62
2021/05/08 05:58:52;;;;;;;12.53;9.53;;;9.80;87.80;;;;;;4425248;32;20492;-61
2021/05/08 06:01:18;;;;;;;11.13;8.90;;;10.00;87.70;;;;;;4426837;32;20179;-64
2021/05/08 06:03:44;;;;;;;11.00;8.70;;;10.30;85.60;;;;;;4426891;32;20153;-64
2021/05/08 06:06:12;;;;;;;12.53;8.70;;;10.50;86.00;;;;;;4429371;32;20219;-63
2021/05/08 06:08:38;;;;;;;11.43;8.87;;;10.80;83.60;;;;;;4426489;32;20143;-63
2021/05/08 06:11:05;;;;;;;10.40;8.30;;;10.60;82.50;;;;;;4424105;32;20214;-63
2021/05/08 06:13:33;;;;;;;10.63;8.27;;;10.40;83.50;;;;;;4427697;32;20465;-61
2021/05/08 06:15:59;;;;;;;11.37;8.80;;;10.30;84.00;;;;;;4424884;32;20234;-61
2021/05/08 06:18:26;;;;;;;9.70;7.97;;;10.10;85.10;;;;;;4426917;32;20236;-61
2021/05/08 06:20:53;;;;;;;15.23;8.87;;;10.10;85.20;;;;;;4426350;32;20238;-60
2021/05/08 06:23:20;;;;;;;11.90;8.40;;;10.10;85.10;;;;;;4427851;32;20183;-63
2021/05/08 06:25:47;;;;;;;13.77;9.00;;;10.10;85.50;;;;;;4426899;32;20210;-64
2021/05/08 06:28:17;;;;;;;10.97;8.33;;;10.10;85.10;;;;;;4427364;32;20246;-61
2021/05/08 06:30:44;;;;;;;11.67;8.93;;;10.10;85.80;;;;;;4430490;32;20239;-61
2021/05/08 06:33:11;;;;;;;10.43;8.53;;;10.20;85.40;;;;;;4427065;32;20169;-61
2021/05/08 06:35:40;;;;;;;11.63;8.20;;;10.10;85.60;;;;;;4431733;32;20225;-61
2021/05/08 06:38:06;;;;;;;10.67;8.37;;;10.00;86.20;;;;;;4427938;32;20191;-62
2021/05/08 06:40:36;;;;;;;11.63;8.97;;;10.00;86.60;;;;;;4429565;32;20268;-61
2021/05/08 06:43:04;;;;;;;10.50;8.00;;;9.90;86.30;;;;;;4426853;32;20228;-61
2021/05/08 06:45:30;;;;;;;10.23;7.80;;;10.10;86.50;;;;;;4431657;32;20173;-60
2021/05/08 06:47:58;;;;;;;11.60;8.33;;;10.40;85.80;;;;;;4427017;32;20230;-61
2021/05/08 06:50:26;;;;;;;11.40;8.43;;;10.30;85.80;;;;;;4426367;32;20160;-60
2021/05/08 06:52:52;;;;;;;12.47;9.17;;;10.30;85.90;;;;;;4428199;32;20219;-60
2021/05/08 06:55:19;;;;;;;11.20;8.83;;;10.50;86.60;;;;;;4428080;32;20161;-64
2021/05/08 06:57:45;;;;;;;10.93;8.63;;;10.30;85.60;;;;;;4425876;32;20172;-64
2021/05/08 07:00:12;;;;;;;13.17;8.73;;;10.20;86.40;;;;;;4423124;32;20215;-63
2021/05/08 07:02:41;;;;;;;10.83;8.73;;;10.40;85.90;;;;;;4427513;32;20175;-62
2021/05/08 07:05:10;;;;;;;11.53;9.00;;;10.50;85.30;;;;;;4428965;32;20226;-60
2021/05/08 07:07:36;;;;;;;11.87;8.90;;;10.70;84.60;;;;;;4428572;32;20173;-60
2021/05/08 07:10:03;;;;;;;12.03;8.93;;;10.90;84.40;;;;;;4426383;32;20165;-60
2021/05/08 07:12:29;;;;;;;10.63;7.83;;;11.00;83.40;;;;;;4427703;32;20175;-62
2021/05/08 07:14:56;;;;;;;12.40;7.90;;;11.10;83.70;;;;;;4423719;32;20168;-62
2021/05/08 07:17:22;;;;;;;12.10;8.93;;;11.20;82.80;;;;;;4429427;32;20233;-61
2021/05/08 07:19:49;;;;;;;11.93;8.93;;;11.40;82.20;;;;;;4428171;32;20606;-61
2021/05/08 07:22:16;;;;;;;13.40;8.90;;;11.40;82.30;;;;;;4427392;32;20163;-65
2021/05/08 07:27:08;;;;;;;11.90;8.93;;;11.50;82.50;;;;;;4384586;32;1343479;-62
2021/05/08 07:29:34;;;;;;;14.90;9.63;;;11.60;82.40;;;;;;4428441;32;20578;-64
2021/05/08 07:32:01;;;;;;;10.90;9.03;;;11.60;82.20;;;;;;4423512;32;20216;-63
2021/05/08 07:34:27;;;;;;;12.70;9.20;;;11.70;82.20;;;;;;4425934;32;20221;-62
2021/05/08 07:36:54;;;;;;;12.67;9.23;;;11.80;82.10;;;;;;4423798;32;20652;-62
2021/05/08 07:39:24;;;;;;;12.83;9.10;;;11.80;81.70;;;;;;4418280;32;20234;-59
2021/05/08 07:41:50;;;;;;;12.47;9.27;;;11.80;82.30;;;;;;4421008;32;20460;-62
2021/05/08 07:44:17;;;;;;;13.23;9.43;;;11.70;81.40;;;;;;4417328;32;20288;-63
2021/05/08 07:46:43;;;;;;;14.00;10.63;;;11.80;82.40;;;;;;4419138;32;20225;-61
2021/05/08 07:49:09;;;;;;;12.97;9.27;;;11.80;81.70;;;;;;4423873;32;20158;-61
2021/05/08 07:51:36;;;;;;;12.83;9.13;;;11.90;81.70;;;;;;4424866;32;20546;-63
2021/05/08 07:54:05;;;;;;;13.77;8.90;;;11.80;82.00;;;;;;4429366;32;20231;-62
2021/05/08 07:56:35;;;;;;;12.97;9.13;;;11.70;82.80;;;;;;4425778;32;20216;-64
2021/05/08 07:59:02;;;;;;;12.20;9.00;;;11.70;81.80;;;;;;4428873;32;20210;-62
2021/05/08 08:01:30;;;;;;;13.37;9.53;;;11.60;82.30;;;;;;4428697;32;20161;-61
2021/05/08 08:03:57;;;;;;;12.13;9.30;;;11.70;83.20;;;;;;4423447;32;20221;-61
2021/05/08 08:06:23;;;;;;;14.13;9.33;;;11.80;82.30;;;;;;4422174;32;20550;-63
2021/05/08 08:08:49;;;;;;;13.60;9.57;;;11.90;82.40;;;;;;4423572;32;20165;-61
2021/05/08 08:11:16;;;;;;;12.50;8.63;;;11.80;82.10;;;;;;4423717;32;20207;-61
2021/05/08 08:13:46;;;;;;;11.87;8.40;;;11.80;82.30;;;;;;4423396;32;20670;-61
2021/05/08 08:16:13;;;;;;;11.80;8.83;;;12.00;82.80;;;;;;4415936;32;20157;-62
2021/05/08 08:18:48;;;;;;;12.00;9.20;;;12.10;82.30;;;;;;4416057;32;20197;-62
2021/05/08 08:21:17;;;;;;;12.43;8.33;;;12.20;81.40;;;;;;4422191;32;20162;-62
2021/05/08 08:23:44;;;;;;;12.60;9.00;;;12.20;80.90;;;;;;4427840;32;20190;-62
2021/05/08 08:26:10;;;;;;;13.23;8.50;;;12.30;81.10;;;;;;4417831;32;20178;-63
2021/05/08 08:28:41;;;;;;;11.83;8.20;;;12.40;81.00;;;;;;4413267;32;20225;-61
2021/05/08 08:31:09;;;;;;;12.97;9.03;;;12.50;81.10;;;;;;4429308;32;20617;-60
2021/05/08 08:33:35;;;;;;;12.90;8.70;;;12.60;80.90;;;;;;4427966;32;20531;-61
2021/05/08 08:36:01;;;;;;;15.60;8.47;;;12.50;80.30;;;;;;4434168;32;20214;-61
2021/05/08 08:38:28;;;;;;;12.00;7.73;;;12.70;80.40;;;;;;4427264;32;20242;-61
2021/05/08 08:40:55;;;;;;;14.73;8.97;;;12.80;79.80;;;;;;4427231;32;20491;-64
2021/05/08 08:43:24;;;;;;;13.53;9.13;;;13.10;79.10;;;;;;4423180;32;20186;-63
2021/05/08 08:45:50;;;;;;;9.37;7.87;;;13.10;77.70;;;;;;4421528;32;20169;-63
2021/05/08 08:48:20;;;;;;;12.23;8.77;;;13.10;78.10;;;;;;4427337;32;20224;-62
2021/05/08 08:50:49;;;;;;;12.63;8.33;;;13.20;78.50;;;;;;4420652;32;20156;-63
2021/05/08 08:53:27;;;;;;;10.30;7.87;;;13.20;79.10;;;;;;4429313;32;20583;-62
2021/05/08 08:55:57;;;;;;;11.53;7.80;;;13.80;78.30;;;;;;4425412;32;20182;-68
2021/05/08 08:58:28;;;;;;;10.23;7.97;;;14.20;76.50;;;;;;4423625;32;20218;-61
2021/05/08 09:00:59;;;;;;;9.70;7.93;;;14.20;75.20;;;;;;4428879;32;20200;-61
2021/05/08 09:03:34;;;;;;;10.40;7.47;;;14.10;75.30;;;;;;4424588;32;20155;-65
2021/05/08 09:06:01;;;;;;;11.93;8.07;;;14.00;75.40;;;;;;4423287;32;20146;-61
2021/05/08 09:08:39;;;;;;;10.70;7.37;;;14.00;76.60;;;;;;4424254;32;20180;-60
2021/05/08 09:11:19;;;;;;;12.10;7.40;;;14.20;75.20;;;;;;4426810;32;20163;-62
2021/05/08 09:13:47;;;;;;;9.03;7.47;;;14.10;75.00;;;;;;4427805;32;20262;-61
2021/05/08 09:16:20;;;;;;;10.60;7.10;;;14.20;75.30;;;;;;4425216;32;20182;-62
2021/05/08 09:18:47;;;;;;;12.17;6.77;;;14.10;76.00;;;;;;4427088;32;20190;-63
2021/05/08 09:21:33;;;;;;;9.50;6.60;;;14.60;75.80;;;;;;4427159;32;20267;-64
2021/05/08 09:24:00;;;;;;;9.50;6.50;;;15.30;73.50;;;;;;4424634;32;20250;-61
2021/05/08 09:26:39;;;;;;;9.20;6.40;;;15.80;71.00;;;;;;4428085;32;20163;-63
2021/05/08 09:29:17;;;;;;;8.47;5.97;;;15.90;70.10;;;;;;4426648;32;20173;-62
2021/05/08 09:32:15;;;;;;;7.70;5.60;;;15.90;69.90;;;;;;4425881;32;20684;-62
2021/05/08 09:34:42;;;;;;;10.57;5.80;;;15.90;70.30;;;;;;4425032;32;20169;-63
2021/05/08 09:37:12;;;;;;;12.10;6.07;;;15.90;69.00;;;;;;4425407;32;20628;-64
2021/05/08 09:39:39;;;;;;;9.47;5.57;;;15.80;68.90;;;;;;4420890;32;20186;-63
2021/05/08 09:42:05;;;;;;;8.07;5.73;;;15.70;69.50;;;;;;4420338;32;20216;-66
2021/05/08 09:44:32;;;;;;;7.43;5.10;;;15.40;69.70;;;;;;4422888;32;20286;-62
2021/05/08 09:47:00;;;;;;;7.53;5.13;;;15.30;71.30;;;;;;4426707;32;20193;-61
2021/05/08 09:49:26;;;;;;;9.23;5.43;;;15.20;72.80;;;;;;4423353;32;20472;-61
2021/05/08 09:51:59;;;;;;;8.30;5.10;;;14.90;73.80;;;;;;4423137;32;20185;-61
2021/05/08 09:54:26;;;;;;;9.27;5.10;;;14.40;74.40;;;;;;4422490;32;20218;-65
2021/05/08 09:56:53;;;;;;;10.90;6.10;;;14.00;77.50;;;;;;4422154;32;20191;-61
2021/05/08 09:59:24;;;;;;;7.90;5.83;;;13.70;79.00;;;;;;4428937;32;20170;-63
2021/05/08 10:02:11;;;;;;;5.80;4.77;;;13.50;80.20;;;;;;4434460;32;20448;-61
2021/05/08 10:04:42;;;;;;;8.83;5.37;;;13.40;81.30;;;;;;4424980;32;20683;-62
2021/05/08 10:07:10;;;;;;;7.90;5.07;;;13.40;80.50;;;;;;4431306;32;20479;-64
2021/05/08 10:09:39;;;;;;;11.47;5.87;;;13.40;83.20;;;;;;4434781;32;20159;-63
2021/05/08 10:12:07;;;;;;;8.23;5.43;;;13.30;86.50;;;;;;4428380;32;20203;-62
2021/05/08 10:14:34;;;;;;;8.27;4.83;;;13.00;87.80;;;;;;4429510;32;20210;-61
2021/05/08 10:17:01;;;;;;;8.27;4.67;;;13.00;89.10;;;;;;4426066;32;20201;-62
2021/05/08 10:19:30;;;;;;;7.67;5.07;;;12.90;88.90;;;;;;4432418;32;20510;-63
2021/05/08 10:21:58;;;;;;;5.30;4.57;;;12.90;89.90;;;;;;4429319;32;20297;-63
2021/05/08 10:24:26;;;;;;;8.53;5.33;;;12.70;89.20;;;;;;4428141;32;20253;-63
2021/05/08 10:26:57;;;;;;;7.87;5.10;;;12.60;89.20;;;;;;4427505;32;20240;-62
2021/05/08 10:29:25;;;;;;;7.43;4.50;;;12.40;90.00;;;;;;4424627;32;20167;-62
2021/05/08 10:31:53;;;;;;;6.63;4.53;;;12.30;90.20;;;;;;4428797;32;20343;-62
2021/05/08 10:34:30;;;;;;;6.33;4.67;;;12.30;89.80;;;;;;4427123;32;20163;-62
2021/05/08 10:37:08;;;;;;;8.27;4.83;;;12.40;90.10;;;;;;4428449;32;20151;-63
2021/05/08 10:39:52;;;;;;;6.00;4.50;;;12.40;90.50;;;;;;4423781;32;20229;-62
2021/05/08 10:42:41;;;;;;;6.90;5.13;;;12.40;91.10;;;;;;4428336;32;20515;-62
2021/05/08 10:45:32;;;;;;;8.23;4.30;;;12.30;91.60;;;;;;4427940;32;20159;-61
2021/05/08 10:48:10;;;;;;;6.60;4.53;;;11.90;92.60;;;;;;4427407;32;20185;-64
2021/05/08 10:50:47;;;;;;;6.73;4.60;;;11.80;93.20;;;;;;4427992;32;20151;-62
2021/05/08 10:53:16;;;;;;;6.67;4.40;;;11.70;94.30;;;;;;4422209;32;20251;-62
2021/05/08 10:55:57;;;;;;;6.27;4.40;;;11.90;94.40;;;;;;4422507;32;20232;-62
2021/05/08 10:58:37;;;;;;;7.90;4.93;;;11.90;94.10;;;;;;4414775;32;20712;-61
2021/05/08 11:01:08;;;;;;;8.20;5.00;;;12.00;94.90;;;;;;4417769;32;20199;-62
2021/05/08 11:04:09;;;;;;;7.03;5.33;;;11.80;95.30;;;;;;4422353;32;20243;-61
2021/05/08 11:06:38;;;;;;;7.33;4.80;;;11.90;95.90;;;;;;4417162;32;20157;-61
2021/05/08 11:09:25;;;;;;;7.73;5.30;;;11.80;96.30;;;;;;4420663;32;20391;-61
2021/05/08 11:11:53;;;;;;;8.30;6.07;;;11.80;96.60;;;;;;4425611;32;20222;-62
2021/05/08 11:14:51;;;;;;;8.30;5.80;;;11.60;97.50;;;;;;4431227;32;20159;-64
2021/05/08 11:17:18;;;;;;;7.37;5.37;;;11.60;97.10;;;;;;4427325;32;20205;-64
2021/05/08 11:19:44;;;;;;;8.40;5.40;;;11.40;98.20;;;;;;4431378;32;20241;-61
2021/05/08 11:22:10;;;;;;;6.17;5.30;;;11.20;98.90;;;;;;4428055;32;20280;-63
2021/05/08 11:24:39;;;;;;;7.97;5.30;;;11.10;99.90;;;;;;4428355;32;20157;-61
2021/05/08 11:27:21;;;;;;;9.40;5.83;;;10.90;99.90;;;;;;4429857;32;20170;-61
2021/05/08 11:29:51;;;;;;;8.37;5.53;;;10.90;99.90;;;;;;4426512;32;20160;-61
2021/05/08 11:32:20;;;;;;;9.10;5.17;;;10.80;99.90;;;;;;4427971;32;20218;-61
2021/05/08 11:34:47;;;;;;;6.13;5.03;;;10.80;99.90;;;;;;4422626;32;20150;-64
2021/05/08 11:37:15;;;;;;;6.97;5.70;;;10.70;99.90;;;;;;4424056;32;20601;-63
2021/05/08 11:39:42;;;;;;;8.40;5.10;;;10.60;99.90;;;;;;4427297;32;20666;-63
2021/05/08 11:42:15;;;;;;;7.00;4.70;;;10.50;99.90;;;;;;4424757;32;20280;-63
2021/05/08 11:44:43;;;;;;;9.37;5.07;;;10.50;99.90;;;;;;4432179;32;20596;-63
2021/05/08 11:47:28;;;;;;;6.23;5.17;;;10.40;99.90;;;;;;4425439;32;20173;-62
2021/05/08 11:49:59;;;;;;;35.07;24.87;;;10.30;99.90;;;;;;4422050;32;20191;-65
2021/05/08 11:52:37;;;;;;;8.53;4.90;;;10.10;99.90;;;;;;4421231;32;20177;-63
2021/05/08 11:55:05;;;;;;;9.43;7.17;;;10.10;99.90;;;;;;4422548;32;20178;-61
2021/05/08 11:57:31;;;;;;;7.47;5.90;;;10.10;99.90;;;;;;4426950;32;20257;-63
2021/05/08 11:59:59;;;;;;;9.57;8.57;;;10.20;99.90;;;;;;4436036;32;20159;-62
2021/05/08 12:02:26;;;;;;;8.43;5.57;;;10.30;99.90;;;;;;4427433;32;20609;-60
2021/05/08 12:04:54;;;;;;;6.20;5.50;;;10.30;99.90;;;;;;4424555;32;20164;-62
2021/05/08 12:07:22;;;;;;;5.90;5.30;;;10.30;99.90;;;;;;4422484;32;20192;-60
2021/05/08 12:09:49;;;;;;;8.73;5.37;;;10.30;99.90;;;;;;4432720;32;20159;-60
2021/05/08 12:12:16;;;;;;;13.10;8.30;;;10.30;99.90;;;;;;4423778;32;20217;-60
2021/05/08 12:14:43;;;;;;;13.33;11.53;;;10.30;99.90;;;;;;4424724;32;20511;-60
2021/05/08 12:17:10;;;;;;;9.57;6.47;;;10.40;99.90;;;;;;4426558;32;20162;-60
2021/05/08 12:19:38;;;;;;;10.73;6.40;;;10.50;99.90;;;;;;4426268;32;20594;-60
2021/05/08 12:22:04;;;;;;;9.83;6.77;;;10.50;99.90;;;;;;4425373;32;20268;-59
2021/05/08 12:24:31;;;;;;;7.57;6.60;;;10.50;99.90;;;;;;4421807;32;20194;-60
2021/05/08 12:26:57;;;;;;;10.10;8.10;;;10.40;99.90;;;;;;4423654;32;20213;-61
2021/05/08 12:29:23;;;;;;;8.40;6.67;;;10.30;99.90;;;;;;4425639;32;20188;-60
2021/05/08 12:31:50;;;;;;;21.00;12.03;;;10.30;99.90;;;;;;4427013;32;20444;-60
2021/05/08 12:34:20;;;;;;;12.27;7.60;;;10.30;99.90;;;;;;4424443;32;20163;-61
2021/05/08 12:37:00;;;;;;;12.87;8.53;;;10.30;99.90;;;;;;4427087;32;20215;-63
2021/05/08 12:39:27;;;;;;;11.77;7.93;;;10.20;99.90;;;;;;4424378;32;20229;-61
2021/05/08 12:42:06;;;;;;;9.40;7.10;;;10.20;99.90;;;;;;4427504;32;20235;-65
2021/05/08 12:44:37;;;;;;;9.53;7.27;;;10.30;99.90;;;;;;4429367;32;20163;-61
2021/05/08 12:47:16;;;;;;;9.70;8.07;;;10.40;99.90;;;;;;4428145;32;20175;-61
2021/05/08 12:50:12;;;;;;;9.17;8.23;;;10.40;99.90;;;;;;4427845;32;20231;-60
2021/05/08 12:52:39;;;;;;;14.60;8.83;;;10.50;99.90;;;;;;4425432;32;20226;-61
2021/05/08 12:55:28;;;;;;;12.03;7.87;;;10.50;99.90;;;;;;4428409;32;20207;-60